sensor_id;sensor_type;location;lat;lon;timestamp;pressure;altitude;pressure_sealevel;temperature;humidity
59009;BME280;44794;42.652;23.318;2023-02-12T00:01:00;95489.19;;;1.31;43.29
59009;BME280;44794;42.652;23.318;2023-02-12T00:03:25;95483.41;;;1.24;43.10
59009;BME280;44794;42.652;23.318;2023-02-12T00:05:51;95487.63;;;1.27;42.88
59009;BME280;44794;42.652;23.318;2023-02-12T00:08:16;95484.13;;;1.29;43.08
59009;BME280;44794;42.652;23.318;2023-02-12T00:10:42;95480.84;;;1.24;43.25
59009;BME280;44794;42.652;23.318;2023-02-12T00:13:11;95483.41;;;1.24;43.68
59009;BME280;44794;42.652;23.318;2023-02-12T00:15:41;95490.34;;;1.19;43.15
59009;BME280;44794;42.652;23.318;2023-02-12T00:18:07;95505.63;;;1.22;43.43
59009;BME280;44794;42.652;23.318;2023-02-12T00:20:32;95494.69;;;1.17;43.27
59009;BME280;44794;42.652;23.318;2023-02-12T00:22:58;95497.19;;;1.19;43.22
59009;BME280;44794;42.652;23.318;2023-02-12T00:25:23;95497.19;;;1.19;43.37
59009;BME280;44794;42.652;23.318;2023-02-12T00:27:49;95504.91;;;1.16;43.26
59009;BME280;44794;42.652;23.318;2023-02-12T00:30:14;95485.22;;;1.19;42.97
59009;BME280;44794;42.652;23.318;2023-02-12T00:32:40;95484.50;;;1.14;43.25
59009;BME280;44794;42.652;23.318;2023-02-12T00:35:05;95483.47;;;1.21;43.08
59009;BME280;44794;42.652;23.318;2023-02-12T00:37:31;95479.19;;;1.23;43.29
59009;BME280;44794;42.652;23.318;2023-02-12T00:39:56;95465.56;;;1.21;43.36
59009;BME280;44794;42.652;23.318;2023-02-12T00:42:21;95453.66;;;1.20;43.59
59009;BME280;44794;42.652;23.318;2023-02-12T00:44:47;95456.19;;;1.22;43.25
59009;BME280;44794;42.652;23.318;2023-02-12T00:47:12;95443.31;;;1.25;43.68
59009;BME280;44794;42.652;23.318;2023-02-12T00:49:38;95454.34;;;1.27;43.44
59009;BME280;44794;42.652;23.318;2023-02-12T00:52:04;95453.59;;;1.23;43.74
59009;BME280;44794;42.652;23.318;2023-02-12T00:54:30;95442.56;;;1.21;43.53
59009;BME280;44794;42.652;23.318;2023-02-12T00:56:56;95446.84;;;1.19;43.36
59009;BME280;44794;42.652;23.318;2023-02-12T00:59:22;95449.56;;;1.13;43.97
59009;BME280;44794;42.652;23.318;2023-02-12T01:01:49;95449.47;;;1.18;43.43
59009;BME280;44794;42.652;23.318;2023-02-12T01:04:14;95443.41;;;1.22;43.43
59009;BME280;44794;42.652;23.318;2023-02-12T01:06:40;95437.47;;;1.20;43.43
59009;BME280;44794;42.652;23.318;2023-02-12T01:09:05;95437.38;;;1.24;43.80
59009;BME280;44794;42.652;23.318;2023-02-12T01:11:31;95445.69;;;1.32;43.64
59009;BME280;44794;42.652;23.318;2023-02-12T01:13:56;95431.78;;;1.42;43.57
59009;BME280;44794;42.652;23.318;2023-02-12T01:16:23;95437.81;;;1.40;43.41
59009;BME280;44794;42.652;23.318;2023-02-12T01:18:49;95431.00;;;1.39;43.47
59009;BME280;44794;42.652;23.318;2023-02-12T01:21:18;95452.19;;;1.45;43.57
59009;BME280;44794;42.652;23.318;2023-02-12T01:23:45;95447.22;;;1.39;43.76
59009;BME280;44794;42.652;23.318;2023-02-12T01:26:11;95442.97;;;1.38;43.85
59009;BME280;44794;42.652;23.318;2023-02-12T01:28:39;95454.91;;;1.39;43.63
59009;BME280;44794;42.652;23.318;2023-02-12T01:31:17;95455.66;;;1.43;43.84
59009;BME280;44794;42.652;23.318;2023-02-12T01:33:43;95465.16;;;1.38;44.07
59009;BME280;44794;42.652;23.318;2023-02-12T01:36:11;95464.31;;;1.37;44.17
59009;BME280;44794;42.652;23.318;2023-02-12T01:38:36;95454.25;;;1.30;44.24
59009;BME280;44794;42.652;23.318;2023-02-12T01:41:07;95455.28;;;1.24;44.54
59009;BME280;44794;42.652;23.318;2023-02-12T01:43:34;95460.31;;;1.27;44.57
59009;BME280;44794;42.652;23.318;2023-02-12T01:46:01;95434.06;;;1.19;44.78
59009;BME280;44794;42.652;23.318;2023-02-12T01:48:31;95442.66;;;1.18;44.79
59009;BME280;44794;42.652;23.318;2023-02-12T01:50:58;95430.63;;;1.20;45.16
59009;BME280;44794;42.652;23.318;2023-02-12T01:53:28;95445.25;;;1.15;45.55
59009;BME280;44794;42.652;23.318;2023-02-12T01:55:58;95430.03;;;1.11;45.68
59009;BME280;44794;42.652;23.318;2023-02-12T01:58:25;95417.19;;;1.12;45.46
59009;BME280;44794;42.652;23.318;2023-02-12T02:00:54;95423.38;;;1.04;45.78
59009;BME280;44794;42.652;23.318;2023-02-12T02:03:19;95428.53;;;1.02;46.15
59009;BME280;44794;42.652;23.318;2023-02-12T02:05:55;95420.94;;;0.99;46.13
59009;BME280;44794;42.652;23.318;2023-02-12T02:08:21;95415.94;;;0.95;46.42
59009;BME280;44794;42.652;23.318;2023-02-12T02:10:47;95415.03;;;0.97;46.57
59009;BME280;44794;42.652;23.318;2023-02-12T02:13:12;95422.72;;;0.97;46.45
59009;BME280;44794;42.652;23.318;2023-02-12T02:15:59;95420.97;;;0.98;46.65
59009;BME280;44794;42.652;23.318;2023-02-12T02:32:24;95419.41;;;0.92;47.71
59009;BME280;44794;42.652;23.318;2023-02-12T02:37:49;95410.25;;;0.84;48.13
59009;BME280;44794;42.652;23.318;2023-02-12T02:40:23;95414.56;;;0.82;48.48
59009;BME280;44794;42.652;23.318;2023-02-12T02:42:57;95407.59;;;0.88;48.60
59009;BME280;44794;42.652;23.318;2023-02-12T02:48:00;95407.38;;;0.96;49.10
59009;BME280;44794;42.652;23.318;2023-02-12T02:50:28;95423.59;;;0.95;49.31
59009;BME280;44794;42.652;23.318;2023-02-12T02:53:00;95421.84;;;0.97;49.66
59009;BME280;44794;42.652;23.318;2023-02-12T02:55:31;95412.34;;;1.03;49.42
59009;BME280;44794;42.652;23.318;2023-02-12T02:58:05;95411.31;;;1.09;50.23
59009;BME280;44794;42.652;23.318;2023-02-12T03:00:40;95418.97;;;1.10;49.85
59009;BME280;44794;42.652;23.318;2023-02-12T03:03:34;95427.53;;;1.09;49.91
59009;BME280;44794;42.652;23.318;2023-02-12T03:06:09;95419.91;;;1.06;50.19
59009;BME280;44794;42.652;23.318;2023-02-12T03:08:39;95419.00;;;1.09;50.11
59009;BME280;44794;42.652;23.318;2023-02-12T03:11:21;95405.22;;;1.14;49.91
59009;BME280;44794;42.652;23.318;2023-02-12T03:13:52;95414.34;;;1.24;49.36
59009;BME280;44794;42.652;23.318;2023-02-12T03:16:25;95418.59;;;1.24;49.56
59009;BME280;44794;42.652;23.318;2023-02-12T03:19:19;95420.28;;;1.25;49.92
59009;BME280;44794;42.652;23.318;2023-02-12T03:29:34;95407.00;;;1.44;49.66
59009;BME280;44794;42.652;23.318;2023-02-12T03:37:32;95396.66;;;1.47;50.10
59009;BME280;44794;42.652;23.318;2023-02-12T03:42:49;95407.53;;;1.55;50.20
59009;BME280;44794;42.652;23.318;2023-02-12T03:48:01;95416.06;;;1.55;50.21
59009;BME280;44794;42.652;23.318;2023-02-12T03:53:10;95415.22;;;1.55;50.23
59009;BME280;44794;42.652;23.318;2023-02-12T03:55:39;95410.84;;;1.60;50.44
59009;BME280;44794;42.652;23.318;2023-02-12T03:58:09;95422.13;;;1.51;50.77
59009;BME280;44794;42.652;23.318;2023-02-12T04:00:37;95422.06;;;1.54;50.41
59009;BME280;44794;42.652;23.318;2023-02-12T04:03:04;95413.22;;;1.34;50.95
59009;BME280;44794;42.652;23.318;2023-02-12T04:05:30;95411.53;;;1.33;51.43
59009;BME280;44794;42.652;23.318;2023-02-12T04:07:57;95405.63;;;1.31;51.79
59009;BME280;44794;42.652;23.318;2023-02-12T04:10:32;95417.25;;;1.11;51.77
59009;BME280;44794;42.652;23.318;2023-02-12T04:13:25;95411.47;;;1.04;52.42
59009;BME280;44794;42.652;23.318;2023-02-12T04:18:45;95401.59;;;0.89;52.79
59009;BME280;44794;42.652;23.318;2023-02-12T04:26:54;95426.34;;;0.87;53.88
59009;BME280;44794;42.652;23.318;2023-02-12T04:32:18;95431.06;;;0.69;54.35
59009;BME280;44794;42.652;23.318;2023-02-12T04:34:52;95426.16;;;0.60;54.56
59009;BME280;44794;42.652;23.318;2023-02-12T04:37:26;95437.22;;;0.61;54.80
59009;BME280;44794;42.652;23.318;2023-02-12T04:39:55;95432.13;;;0.61;55.22
59009;BME280;44794;42.652;23.318;2023-02-12T04:42:22;95435.50;;;0.61;54.99
59009;BME280;44794;42.652;23.318;2023-02-12T04:44:48;95437.50;;;0.49;55.07
59009;BME280;44794;42.652;23.318;2023-02-12T04:47:15;95434.81;;;0.55;55.28
59009;BME280;44794;42.652;23.318;2023-02-12T04:49:41;95451.75;;;0.59;55.66
59009;BME280;44794;42.652;23.318;2023-02-12T04:52:07;95449.28;;;0.56;55.31
59009;BME280;44794;42.652;23.318;2023-02-12T04:54:33;95450.03;;;0.59;55.56
59009;BME280;44794;42.652;23.318;2023-02-12T04:56:59;95445.09;;;0.52;55.75
59009;BME280;44794;42.652;23.318;2023-02-12T04:59:24;95444.34;;;0.47;55.54
59009;BME280;44794;42.652;23.318;2023-02-12T05:01:50;95445.28;;;0.43;55.76
59009;BME280;44794;42.652;23.318;2023-02-12T05:04:16;95444.41;;;0.44;55.72
59009;BME280;44794;42.652;23.318;2023-02-12T05:06:43;95445.22;;;0.46;55.81
59009;BME280;44794;42.652;23.318;2023-02-12T05:09:13;95446.03;;;0.48;55.44
59009;BME280;44794;42.652;23.318;2023-02-12T05:11:39;95453.25;;;0.67;55.12
59009;BME280;44794;42.652;23.318;2023-02-12T05:14:04;95451.34;;;0.76;54.51
59009;BME280;44794;42.652;23.318;2023-02-12T05:16:30;95455.34;;;0.86;54.25
59009;BME280;44794;42.652;23.318;2023-02-12T05:18:56;95451.56;;;1.02;53.30
59009;BME280;44794;42.652;23.318;2023-02-12T05:21:21;95445.47;;;1.08;52.61
59009;BME280;44794;42.652;23.318;2023-02-12T05:23:47;95456.41;;;1.13;52.68
59009;BME280;44794;42.652;23.318;2023-02-12T05:26:17;95473.59;;;1.06;52.98
59009;BME280;44794;42.652;23.318;2023-02-12T05:28:44;95468.38;;;1.11;54.43
59009;BME280;44794;42.652;23.318;2023-02-12T05:31:12;95476.25;;;1.03;54.87
59009;BME280;44794;42.652;23.318;2023-02-12T05:33:37;95472.06;;;0.99;55.23
59009;BME280;44794;42.652;23.318;2023-02-12T05:36:14;95479.84;;;0.96;55.75
59009;BME280;44794;42.652;23.318;2023-02-12T05:38:41;95484.09;;;0.97;56.20
59009;BME280;44794;42.652;23.318;2023-02-12T05:41:10;95483.22;;;0.97;57.26
59009;BME280;44794;42.652;23.318;2023-02-12T05:43:36;95491.09;;;0.89;58.38
59009;BME280;44794;42.652;23.318;2023-02-12T05:46:03;95493.03;;;0.78;59.37
59009;BME280;44794;42.652;23.318;2023-02-12T05:48:29;95495.75;;;0.71;59.94
59009;BME280;44794;42.652;23.318;2023-02-12T05:51:01;95498.47;;;0.65;60.47
59009;BME280;44794;42.652;23.318;2023-02-12T05:53:27;95497.66;;;0.63;60.85
59009;BME280;44794;42.652;23.318;2023-02-12T05:55:52;95493.31;;;0.67;61.38
59009;BME280;44794;42.652;23.318;2023-02-12T05:58:18;95490.69;;;0.70;62.02
59009;BME280;44794;42.652;23.318;2023-02-12T06:00:43;95507.88;;;0.63;62.51
59009;BME280;44794;42.652;23.318;2023-02-12T06:03:09;95495.81;;;0.68;64.26
59009;BME280;44794;42.652;23.318;2023-02-12T06:05:34;95497.47;;;0.71;64.91
59009;BME280;44794;42.652;23.318;2023-02-12T06:07:59;95492.34;;;0.71;66.26
59009;BME280;44794;42.652;23.318;2023-02-12T06:10:25;95518.81;;;0.68;67.04
59009;BME280;44794;42.652;23.318;2023-02-12T06:12:54;95504.31;;;0.70;68.35
59009;BME280;44794;42.652;23.318;2023-02-12T06:15:20;95502.63;;;0.69;69.30
59009;BME280;44794;42.652;23.318;2023-02-12T06:17:45;95499.31;;;0.64;70.26
59009;BME280;44794;42.652;23.318;2023-02-12T06:20:11;95485.03;;;0.56;71.19
59009;BME280;44794;42.652;23.318;2023-02-12T06:22:36;95505.50;;;0.54;72.00
59009;BME280;44794;42.652;23.318;2023-02-12T06:25:03;95508.00;;;0.57;72.68
59009;BME280;44794;42.652;23.318;2023-02-12T06:27:28;95510.31;;;0.68;72.73
59009;BME280;44794;42.652;23.318;2023-02-12T06:29:54;95500.94;;;0.68;73.66
59009;BME280;44794;42.652;23.318;2023-02-12T06:32:19;95503.53;;;0.67;74.73
59009;BME280;44794;42.652;23.318;2023-02-12T06:34:45;95507.22;;;0.54;77.13
59009;BME280;44794;42.652;23.318;2023-02-12T06:37:11;95513.97;;;0.56;78.31
59009;BME280;44794;42.652;23.318;2023-02-12T06:39:37;95509.09;;;0.46;79.43
59009;BME280;44794;42.652;23.318;2023-02-12T06:42:02;95520.28;;;0.40;79.89
59009;BME280;44794;42.652;23.318;2023-02-12T06:44:27;95520.16;;;0.46;79.96
59009;BME280;44794;42.652;23.318;2023-02-12T06:46:53;95519.19;;;0.52;79.57
59009;BME280;44794;42.652;23.318;2023-02-12T06:49:18;95512.38;;;0.51;79.74
59009;BME280;44794;42.652;23.318;2023-02-12T06:51:44;95514.16;;;0.49;79.73
59009;BME280;44794;42.652;23.318;2023-02-12T06:54:14;95515.56;;;0.62;79.38
59009;BME280;44794;42.652;23.318;2023-02-12T06:56:39;95505.50;;;0.56;79.62
59009;BME280;44794;42.652;23.318;2023-02-12T06:59:05;95514.03;;;0.53;79.79
59009;BME280;44794;42.652;23.318;2023-02-12T07:01:30;95504.72;;;0.52;79.67
59009;BME280;44794;42.652;23.318;2023-02-12T07:03:58;95509.91;;;0.46;79.41
59009;BME280;44794;42.652;23.318;2023-02-12T07:06:25;95521.50;;;0.62;79.32
59009;BME280;44794;42.652;23.318;2023-02-12T07:08:51;95515.75;;;0.53;78.92
59009;BME280;44794;42.652;23.318;2023-02-12T07:11:17;95510.84;;;0.44;79.13
59009;BME280;44794;42.652;23.318;2023-02-12T07:13:43;95514.06;;;0.52;79.21
59009;BME280;44794;42.652;23.318;2023-02-12T07:16:12;95515.50;;;0.65;78.87
59009;BME280;44794;42.652;23.318;2023-02-12T07:18:39;95516.72;;;0.49;78.82
59009;BME280;44794;42.652;23.318;2023-02-12T07:21:06;95526.72;;;0.59;79.00
59009;BME280;44794;42.652;23.318;2023-02-12T07:23:32;95518.28;;;0.54;78.85
59009;BME280;44794;42.652;23.318;2023-02-12T07:26:02;95524.03;;;0.64;78.94
59009;BME280;44794;42.652;23.318;2023-02-12T07:28:29;95536.69;;;0.70;78.74
59009;BME280;44794;42.652;23.318;2023-02-12T07:30:58;95524.09;;;0.61;78.92
59009;BME280;44794;42.652;23.318;2023-02-12T07:33:24;95519.78;;;0.64;79.05
59009;BME280;44794;42.652;23.318;2023-02-12T07:35:50;95521.66;;;0.56;79.08
59009;BME280;44794;42.652;23.318;2023-02-12T07:38:15;95518.25;;;0.56;79.41
59009;BME280;44794;42.652;23.318;2023-02-12T07:40:40;95530.91;;;0.62;79.73
59009;BME280;44794;42.652;23.318;2023-02-12T07:43:06;95541.78;;;0.71;79.48
59009;BME280;44794;42.652;23.318;2023-02-12T07:45:31;95547.03;;;0.64;79.90
59009;BME280;44794;42.652;23.318;2023-02-12T07:47:57;95531.97;;;0.52;80.26
59009;BME280;44794;42.652;23.318;2023-02-12T07:50:22;95542.03;;;0.59;80.68
59009;BME280;44794;42.652;23.318;2023-02-12T07:52:48;95543.19;;;0.45;81.13
59009;BME280;44794;42.652;23.318;2023-02-12T07:55:14;95548.88;;;0.57;81.44
59009;BME280;44794;42.652;23.318;2023-02-12T07:57:40;95537.94;;;0.52;81.53
59009;BME280;44794;42.652;23.318;2023-02-12T08:00:06;95539.44;;;0.61;81.94
59009;BME280;44794;42.652;23.318;2023-02-12T08:02:32;95541.03;;;0.65;82.02
59009;BME280;44794;42.652;23.318;2023-02-12T08:04:57;95549.66;;;0.61;82.18
59009;BME280;44794;42.652;23.318;2023-02-12T08:07:23;95546.84;;;0.73;82.45
59009;BME280;44794;42.652;23.318;2023-02-12T08:09:49;95545.28;;;0.66;82.60
59009;BME280;44794;42.652;23.318;2023-02-12T08:12:16;95546.47;;;0.50;83.06
59009;BME280;44794;42.652;23.318;2023-02-12T08:14:41;95554.09;;;0.53;83.37
59009;BME280;44794;42.652;23.318;2023-02-12T08:17:07;95549.03;;;0.51;83.38
59009;BME280;44794;42.652;23.318;2023-02-12T08:19:33;95546.56;;;0.47;83.68
59009;BME280;44794;42.652;23.318;2023-02-12T08:21:58;95546.84;;;0.32;83.93
59009;BME280;44794;42.652;23.318;2023-02-12T08:24:26;95553.78;;;0.27;84.66
59009;BME280;44794;42.652;23.318;2023-02-12T08:26:52;95542.88;;;0.19;84.81
59009;BME280;44794;42.652;23.318;2023-02-12T08:29:26;95558.97;;;0.22;85.11
59009;BME280;44794;42.652;23.318;2023-02-12T08:32:00;95557.13;;;0.29;85.24
59009;BME280;44794;42.652;23.318;2023-02-12T08:34:30;95564.69;;;0.33;85.10
59009;BME280;44794;42.652;23.318;2023-02-12T08:36:56;95563.91;;;0.30;85.19
59009;BME280;44794;42.652;23.318;2023-02-12T08:39:24;95563.91;;;0.30;85.41
59009;BME280;44794;42.652;23.318;2023-02-12T08:41:50;95568.03;;;0.37;85.35
59009;BME280;44794;42.652;23.318;2023-02-12T08:44:18;95562.91;;;0.37;85.46
59009;BME280;44794;42.652;23.318;2023-02-12T08:46:48;95569.59;;;0.44;85.41
59009;BME280;44794;42.652;23.318;2023-02-12T08:49:19;95578.69;;;0.57;85.09
59009;BME280;44794;42.652;23.318;2023-02-12T08:51:46;95584.78;;;0.50;84.88
59009;BME280;44794;42.652;23.318;2023-02-12T08:54:15;95578.00;;;0.50;85.09
59009;BME280;44794;42.652;23.318;2023-02-12T08:56:41;95577.03;;;0.54;84.91
59009;BME280;44794;42.652;23.318;2023-02-12T08:59:07;95589.72;;;0.59;84.61
59009;BME280;44794;42.652;23.318;2023-02-12T09:01:34;95590.03;;;0.84;84.37
59009;BME280;44794;42.652;23.318;2023-02-12T09:04:03;95588.09;;;0.95;83.54
59009;BME280;44794;42.652;23.318;2023-02-12T09:06:32;95593.88;;;1.03;82.94
59009;BME280;44794;42.652;23.318;2023-02-12T09:08:58;95599.69;;;1.11;82.50
59009;BME280;44794;42.652;23.318;2023-02-12T09:11:25;95599.59;;;1.14;82.32
59009;BME280;44794;42.652;23.318;2023-02-12T09:13:56;95608.00;;;1.19;82.04
59009;BME280;44794;42.652;23.318;2023-02-12T09:16:22;95606.41;;;1.15;81.75
59009;BME280;44794;42.652;23.318;2023-02-12T09:18:47;95616.50;;;1.21;82.12
59009;BME280;44794;42.652;23.318;2023-02-12T09:21:14;95610.25;;;1.33;81.87
59009;BME280;44794;42.652;23.318;2023-02-12T09:23:42;95607.25;;;1.52;81.57
59009;BME280;44794;42.652;23.318;2023-02-12T09:26:12;95619.91;;;1.58;81.15
59009;BME280;44794;42.652;23.318;2023-02-12T09:28:38;95610.25;;;1.69;80.80
59009;BME280;44794;42.652;23.318;2023-02-12T09:31:13;95612.84;;;1.67;80.20
59009;BME280;44794;42.652;23.318;2023-02-12T09:33:39;95617.69;;;1.78;79.81
59009;BME280;44794;42.652;23.318;2023-02-12T09:36:08;95614.00;;;1.89;79.22
59009;BME280;44794;42.652;23.318;2023-02-12T09:38:34;95620.41;;;1.72;79.79
59009;BME280;44794;42.652;23.318;2023-02-12T09:51:44;95618.22;;;1.57;80.14
59009;BME280;44794;42.652;23.318;2023-02-12T09:54:25;95630.69;;;1.36;80.77
59009;BME280;44794;42.652;23.318;2023-02-12T09:56:55;95630.16;;;1.20;81.43
59009;BME280;44794;42.652;23.318;2023-02-12T09:59:36;95627.22;;;1.37;81.75
59009;BME280;44794;42.652;23.318;2023-02-12T10:02:12;95627.63;;;1.55;81.45
59009;BME280;44794;42.652;23.318;2023-02-12T10:04:38;95614.13;;;1.50;80.83
59009;BME280;44794;42.652;23.318;2023-02-12T10:09:42;95624.56;;;1.76;81.01
59009;BME280;44794;42.652;23.318;2023-02-12T10:15:29;95633.09;;;2.11;79.09
59009;BME280;44794;42.652;23.318;2023-02-12T10:27:45;95627.69;;;2.53;76.65
59009;BME280;44794;42.652;23.318;2023-02-12T10:30:17;95631.69;;;2.63;76.15
59009;BME280;44794;42.652;23.318;2023-02-12T10:32:45;95634.78;;;2.74;76.08
59009;BME280;44794;42.652;23.318;2023-02-12T10:35:16;95643.75;;;2.90;75.31
59009;BME280;44794;42.652;23.318;2023-02-12T10:37:42;95637.72;;;2.91;74.42
59009;BME280;44794;42.652;23.318;2023-02-12T10:40:25;95632.47;;;2.65;75.69
59009;BME280;44794;42.652;23.318;2023-02-12T10:42:55;95633.44;;;2.92;75.57
59009;BME280;44794;42.652;23.318;2023-02-12T10:48:03;95629.41;;;2.83;75.80
59009;BME280;44794;42.652;23.318;2023-02-12T10:50:47;95638.31;;;3.00;74.35
59009;BME280;44794;42.652;23.318;2023-02-12T10:53:23;95629.66;;;3.32;74.28
59009;BME280;44794;42.652;23.318;2023-02-12T10:58:31;95632.75;;;3.70;71.27
59009;BME280;44794;42.652;23.318;2023-02-12T11:00:58;95639.88;;;3.88;70.60
59009;BME280;44794;42.652;23.318;2023-02-12T11:03:29;95639.44;;;4.01;69.63
59009;BME280;44794;42.652;23.318;2023-02-12T11:06:20;95654.50;;;3.86;70.10
59009;BME280;44794;42.652;23.318;2023-02-12T11:08:46;95650.88;;;3.66;70.47
59009;BME280;44794;42.652;23.318;2023-02-12T11:11:23;95645.94;;;3.31;71.71
59009;BME280;44794;42.652;23.318;2023-02-12T11:14:17;95642.72;;;3.24;72.56
59009;BME280;44794;42.652;23.318;2023-02-12T11:16:52;95647.69;;;3.30;72.76
59009;BME280;44794;42.652;23.318;2023-02-12T11:19:38;95635.53;;;3.63;72.24
59009;BME280;44794;42.652;23.318;2023-02-12T11:22:12;95639.59;;;3.69;70.83
59009;BME280;44794;42.652;23.318;2023-02-12T11:24:43;95636.47;;;3.60;71.20
59009;BME280;44794;42.652;23.318;2023-02-12T11:27:21;95635.13;;;4.02;70.18
59009;BME280;44794;42.652;23.318;2023-02-12T11:30:06;95638.28;;;3.84;69.78
59009;BME280;44794;42.652;23.318;2023-02-12T11:32:36;95632.53;;;4.03;69.99
59009;BME280;44794;42.652;23.318;2023-02-12T11:35:20;95631.28;;;4.39;68.63
59009;BME280;44794;42.652;23.318;2023-02-12T11:37:56;95633.22;;;4.81;67.35
59009;BME280;44794;42.652;23.318;2023-02-12T11:40:26;95633.22;;;4.81;65.90
59009;BME280;44794;42.652;23.318;2023-02-12T11:43:04;95629.06;;;4.77;65.71
59009;BME280;44794;42.652;23.318;2023-02-12T11:45:36;95639.97;;;5.08;65.75
59009;BME280;44794;42.652;23.318;2023-02-12T11:48:02;95643.00;;;4.96;64.85
59009;BME280;44794;42.652;23.318;2023-02-12T11:50:34;95627.69;;;4.92;64.68
59009;BME280;44794;42.652;23.318;2023-02-12T11:53:06;95634.28;;;4.76;63.62
59009;BME280;44794;42.652;23.318;2023-02-12T11:55:39;95632.84;;;4.19;65.93
59009;BME280;44794;42.652;23.318;2023-02-12T11:58:21;95631.63;;;4.30;67.04
59009;BME280;44794;42.652;23.318;2023-02-12T12:06:45;95638.84;;;4.68;66.38
59009;BME280;44794;42.652;23.318;2023-02-12T12:09:31;95640.09;;;4.81;65.21
59009;BME280;44794;42.652;23.318;2023-02-12T12:12:09;95636.44;;;4.63;64.03
59009;BME280;44794;42.652;23.318;2023-02-12T12:18:17;95642.13;;;4.73;63.99
59009;BME280;44794;42.652;23.318;2023-02-12T12:21:12;95639.91;;;4.87;64.81
59009;BME280;44794;42.652;23.318;2023-02-12T12:23:48;95642.88;;;4.75;64.13
59009;BME280;44794;42.652;23.318;2023-02-12T12:26:23;95644.81;;;4.93;64.31
59009;BME280;44794;42.652;23.318;2023-02-12T12:29:09;95641.06;;;4.54;64.11
59009;BME280;44794;42.652;23.318;2023-02-12T12:32:18;95645.53;;;4.49;64.87
59009;BME280;44794;42.652;23.318;2023-02-12T12:34:37;95643.94;;;4.21;66.07
59009;BME280;44794;42.652;23.318;2023-02-12T12:37:35;95645.06;;;4.12;66.13
59009;BME280;44794;42.652;23.318;2023-02-12T12:43:16;95653.19;;;4.50;65.95
59009;BME280;44794;42.652;23.318;2023-02-12T12:53:56;95664.84;;;4.85;63.72
59009;BME280;44794;42.652;23.318;2023-02-12T12:59:12;95670.47;;;5.18;61.59
59009;BME280;44794;42.652;23.318;2023-02-12T13:15:26;95677.50;;;4.66;63.44
59009;BME280;44794;42.652;23.318;2023-02-12T13:24:00;95677.19;;;4.51;65.63
59009;BME280;44794;42.652;23.318;2023-02-12T13:29:38;95674.75;;;4.46;66.74
59009;BME280;44794;42.652;23.318;2023-02-12T13:34:51;95680.13;;;4.39;66.26
59009;BME280;44794;42.652;23.318;2023-02-12T13:37:22;95675.00;;;4.39;66.13
59009;BME280;44794;42.652;23.318;2023-02-12T13:39:50;95674.91;;;4.42;66.54
59009;BME280;44794;42.652;23.318;2023-02-12T13:45:13;95681.06;;;4.38;66.60
59009;BME280;44794;42.652;23.318;2023-02-12T13:50:29;95686.63;;;4.25;67.22
59009;BME280;44794;42.652;23.318;2023-02-12T13:56:00;95697.47;;;4.08;68.10
59009;BME280;44794;42.652;23.318;2023-02-12T14:00:58;95701.66;;;3.83;69.10
59009;BME280;44794;42.652;23.318;2023-02-12T14:03:24;95702.31;;;3.63;70.28
59009;BME280;44794;42.652;23.318;2023-02-12T14:06:17;95697.78;;;3.70;70.71
59009;BME280;44794;42.652;23.318;2023-02-12T14:09:06;95705.94;;;3.56;71.21
59009;BME280;44794;42.652;23.318;2023-02-12T14:11:32;95712.31;;;3.71;71.44
59009;BME280;44794;42.652;23.318;2023-02-12T14:14:00;95718.44;;;3.68;71.43
59009;BME280;44794;42.652;23.318;2023-02-12T14:22:09;95720.34;;;3.32;72.46
59009;BME280;44794;42.652;23.318;2023-02-12T14:27:03;95731.19;;;3.42;73.17
59009;BME280;44794;42.652;23.318;2023-02-12T14:29:29;95729.59;;;3.38;72.98
59009;BME280;44794;42.652;23.318;2023-02-12T14:31:54;95724.09;;;3.21;73.34
59009;BME280;44794;42.652;23.318;2023-02-12T14:36:46;95736.16;;;3.19;74.33
59009;BME280;44794;42.652;23.318;2023-02-12T14:47:01;95758.59;;;3.11;74.55
59009;BME280;44794;42.652;23.318;2023-02-12T14:49:35;95756.28;;;3.02;74.57
59009;BME280;44794;42.652;23.318;2023-02-12T14:54:56;95756.38;;;2.99;74.84
59009;BME280;44794;42.652;23.318;2023-02-12T14:57:28;95750.47;;;2.96;75.74
59009;BME280;44794;42.652;23.318;2023-02-12T15:02:47;95771.00;;;2.96;75.70
59009;BME280;44794;42.652;23.318;2023-02-12T15:05:21;95767.50;;;2.98;75.86
59009;BME280;44794;42.652;23.318;2023-02-12T15:07:51;95776.13;;;2.96;76.11
59009;BME280;44794;42.652;23.318;2023-02-12T15:10:27;95779.47;;;2.97;75.69
59009;BME280;44794;42.652;23.318;2023-02-12T15:13:23;95790.94;;;2.85;75.98
59009;BME280;44794;42.652;23.318;2023-02-12T15:16:07;95791.59;;;2.93;75.70
59009;BME280;44794;42.652;23.318;2023-02-12T15:21:22;95808.19;;;2.80;75.69
59009;BME280;44794;42.652;23.318;2023-02-12T15:23:58;95819.16;;;2.85;76.42
59009;BME280;44794;42.652;23.318;2023-02-12T15:26:26;95822.00;;;2.74;76.99
59009;BME280;44794;42.652;23.318;2023-02-12T15:28:53;95830.28;;;2.85;77.30
59009;BME280;44794;42.652;23.318;2023-02-12T15:31:21;95835.47;;;2.82;77.67
59009;BME280;44794;42.652;23.318;2023-02-12T15:33:51;95839.78;;;2.80;77.61
59009;BME280;44794;42.652;23.318;2023-02-12T15:36:22;95840.88;;;2.72;78.00
59009;BME280;44794;42.652;23.318;2023-02-12T15:38:52;95836.72;;;2.66;78.19
59009;BME280;44794;42.652;23.318;2023-02-12T15:43:52;95841.84;;;2.66;78.38
59009;BME280;44794;42.652;23.318;2023-02-12T15:46:17;95847.69;;;2.73;78.72
59009;BME280;44794;42.652;23.318;2023-02-12T15:48:43;95845.94;;;2.73;78.80
59009;BME280;44794;42.652;23.318;2023-02-12T15:51:13;95848.63;;;2.69;78.81
59009;BME280;44794;42.652;23.318;2023-02-12T15:53:41;95846.41;;;2.55;79.40
59009;BME280;44794;42.652;23.318;2023-02-12T15:56:16;95854.22;;;2.49;79.90
59009;BME280;44794;42.652;23.318;2023-02-12T15:58:51;95857.47;;;2.57;80.09
59009;BME280;44794;42.652;23.318;2023-02-12T16:01:28;95854.75;;;2.63;80.13
59009;BME280;44794;42.652;23.318;2023-02-12T16:04:00;95859.38;;;2.49;80.36
59009;BME280;44794;42.652;23.318;2023-02-12T16:06:27;95867.97;;;2.45;80.90